Time;durP1;ratioP1;P1;durP2;ratioP2;P2;SDS_P1;SDS_P2;PMS_P1;PMS_P2;Temp;Humidity;BMP_temperature;BMP_pressure;BME280_temperature;BME280_humidity;BME280_pressure;Samples;Min_cycle;Max_cycle;Signal;HPM_P1;HPM_P2
2023/10/27 00:01:10;;;;;;;;;;;;;;;13.74;63.13;98193.38;6146761;23;6774;-76
2023/10/27 00:03:36;;;;;;;;;;;;;;;13.78;63.02;98199.41;6122346;23;6763;-76
2023/10/27 00:06:02;;;;;;;;;;;;;;;13.83;64.01;98200.25;6145879;23;6763;-76
2023/10/27 00:08:28;;;;;;;;;;;;;;;13.85;63.62;98201.13;6120963;23;7044;-74
2023/10/27 00:10:53;;;;;;;;;;;;;;;13.91;63.37;98206.28;6122444;23;6762;-75
2023/10/27 00:13:20;;;;;;;;;;;;;;;13.94;62.93;98203.69;6123386;23;7077;-75
2023/10/27 00:15:45;;;;;;;;;;;;;;;13.95;63.04;98201.94;6121992;23;6790;-76
2023/10/27 00:18:12;;;;;;;;;;;;;;;13.96;62.94;98199.38;6120738;23;6837;-75
2023/10/27 00:20:38;;;;;;;;;;;;;;;13.97;63.59;98200.25;6122361;23;6834;-76
2023/10/27 00:23:04;;;;;;;;;;;;;;;13.98;63.18;98196.81;6130591;23;6767;-74
2023/10/27 00:25:29;;;;;;;;;;;;;;;13.99;62.96;98195.97;6138919;23;6735;-73
2023/10/27 00:27:55;;;;;;;;;;;;;;;13.99;63.75;98193.38;6138314;23;7010;-74
2023/10/27 00:30:21;;;;;;;;;;;;;;;14.00;63.45;98192.50;6138054;23;6760;-74
2023/10/27 00:32:47;;;;;;;;;;;;;;;14.00;62.93;98190.81;6138846;23;6950;-74
2023/10/27 00:35:13;;;;;;;;;;;;;;;14.01;63.48;98191.66;6112620;23;6939;-74
2023/10/27 00:37:41;;;;;;;;;;;;;;;14.05;62.98;98182.22;6137922;23;6779;-74
2023/10/27 00:40:07;;;;;;;;;;;;;;;14.08;63.55;98177.03;6137351;23;6834;-74
2023/10/27 00:42:33;;;;;;;;;;;;;;;14.10;63.43;98176.19;6137229;23;7169;-74
2023/10/27 00:44:59;;;;;;;;;;;;;;;14.13;63.35;98170.19;6138761;23;6804;-74
2023/10/27 00:47:26;;;;;;;;;;;;;;;14.16;62.92;98170.16;6139278;23;7272;-74
2023/10/27 00:49:54;;;;;;;;;;;;;;;14.16;63.29;98168.47;6139818;23;6767;-74
2023/10/27 00:52:24;;;;;;;;;;;;;;;14.20;62.76;98164.16;6141556;23;7028;-74
2023/10/27 00:54:52;;;;;;;;;;;;;;;14.20;63.17;98161.59;6138935;23;6986;-74
2023/10/27 00:57:20;;;;;;;;;;;;;;;14.19;62.64;98165.00;6140146;23;6955;-74
2023/10/27 00:59:46;;;;;;;;;;;;;;;14.20;62.77;98168.44;6140310;23;6957;-74
2023/10/27 01:02:16;;;;;;;;;;;;;;;14.21;62.82;98167.56;6113307;23;7007;-74
2023/10/27 01:04:42;;;;;;;;;;;;;;;14.21;62.69;98165.88;6165234;23;6970;-74
2023/10/27 01:07:08;;;;;;;;;;;;;;;14.21;63.04;98162.41;6138701;23;6771;-74
2023/10/27 01:09:34;;;;;;;;;;;;;;;14.21;62.81;98165.00;6139295;23;7150;-74
2023/10/27 01:12:00;;;;;;;;;;;;;;;14.21;62.16;98163.28;6138545;23;6819;-74
2023/10/27 01:14:27;;;;;;;;;;;;;;;14.21;62.32;98165.88;6138616;23;6814;-74
2023/10/27 01:16:53;;;;;;;;;;;;;;;14.21;62.77;98158.13;6139486;23;6835;-74
2023/10/27 01:19:19;;;;;;;;;;;;;;;14.21;63.14;98155.56;6163594;23;6779;-74
2023/10/27 01:21:44;;;;;;;;;;;;;;;14.21;63.15;98158.13;6138737;23;6763;-74
2023/10/27 01:24:10;;;;;;;;;;;;;;;14.24;62.37;98149.53;6164240;23;6947;-74
2023/10/27 01:26:35;;;;;;;;;;;;;;;14.24;62.95;98158.13;6139207;23;6763;-74
2023/10/27 01:29:01;;;;;;;;;;;;;;;14.26;63.00;98155.56;6164903;23;6743;-74
2023/10/27 01:31:27;;;;;;;;;;;;;;;14.27;62.74;98157.25;6137775;23;6810;-74
2023/10/27 01:33:52;;;;;;;;;;;;;;;14.26;62.49;98156.38;6150494;23;6755;-76
2023/10/27 01:36:18;;;;;;;;;;;;;;;14.27;63.12;98158.09;6146647;23;6762;-75
2023/10/27 01:38:43;;;;;;;;;;;;;;;14.29;63.04;98158.97;6147148;23;6827;-76
2023/10/27 01:41:09;;;;;;;;;;;;;;;14.29;62.19;98161.56;6121793;23;6763;-76
2023/10/27 01:43:35;;;;;;;;;;;;;;;14.29;63.00;98166.72;6122426;23;7033;-76
2023/10/27 01:46:00;;;;;;;;;;;;;;;14.28;62.83;98164.97;6122359;23;7014;-77
2023/10/27 01:48:26;;;;;;;;;;;;;;;14.27;63.08;98155.53;6120842;23;6759;-77
2023/10/27 01:50:51;;;;;;;;;;;;;;;14.26;62.75;98160.69;6121152;23;7081;-76
2023/10/27 01:53:17;;;;;;;;;;;;;;;14.22;62.78;98148.66;6121146;23;7088;-76
2023/10/27 01:55:43;;;;;;;;;;;;;;;14.20;63.25;98150.41;6094730;23;7208;-76
2023/10/27 01:58:09;;;;;;;;;;;;;;;14.19;63.04;98149.53;6093866;23;7080;-77
2023/10/27 02:00:36;;;;;;;;;;;;;;;14.16;63.02;98146.97;6119589;23;6810;-77
2023/10/27 02:03:01;;;;;;;;;;;;;;;14.16;63.35;98145.28;6121073;23;6782;-75
2023/10/27 02:05:27;;;;;;;;;;;;;;;14.13;62.80;98144.41;6122030;23;6946;-76
2023/10/27 02:07:52;;;;;;;;;;;;;;;14.12;62.63;98137.56;6121999;23;7028;-76
2023/10/27 02:10:18;;;;;;;;;;;;;;;14.08;63.24;98135.84;6121673;23;6973;-74
2023/10/27 02:12:45;;;;;;;;;;;;;;;14.07;62.79;98135.00;6122000;23;6924;-76
2023/10/27 02:15:11;;;;;;;;;;;;;;;14.06;63.06;98125.56;6122604;23;6771;-76
2023/10/27 02:17:39;;;;;;;;;;;;;;;14.08;62.71;98130.69;6122179;23;6921;-76
2023/10/27 02:20:08;;;;;;;;;;;;;;;14.10;63.28;98126.38;6123243;23;6771;-77
2023/10/27 02:22:33;;;;;;;;;;;;;;;14.09;63.62;98124.66;6122322;23;6866;-76
2023/10/27 02:24:59;;;;;;;;;;;;;;;14.10;62.83;98116.94;6144594;23;8082;-77
2023/10/27 02:27:25;;;;;;;;;;;;;;;14.09;62.96;98110.09;6095965;23;6992;-76
2023/10/27 02:29:51;;;;;;;;;;;;;;;14.09;63.62;98101.47;6121450;23;6903;-76
2023/10/27 02:32:16;;;;;;;;;;;;;;;14.09;63.62;98111.78;6119980;23;6770;-76
2023/10/27 02:34:42;;;;;;;;;;;;;;;14.08;63.02;98095.50;6122400;23;6767;-76
2023/10/27 02:37:08;;;;;;;;;;;;;;;14.10;63.87;98095.47;6122186;23;7066;-76
2023/10/27 02:39:33;;;;;;;;;;;;;;;14.11;63.21;98097.22;6147500;23;6919;-76
2023/10/27 02:41:59;;;;;;;;;;;;;;;14.12;63.92;98092.03;6118694;23;6758;-76
2023/10/27 02:44:24;;;;;;;;;;;;;;;14.12;62.85;98092.03;6160806;23;6762;-73
2023/10/27 02:46:50;;;;;;;;;;;;;;;14.14;62.82;98084.31;6141901;23;7045;-73
2023/10/27 02:49:16;;;;;;;;;;;;;;;14.14;63.54;98087.72;6141153;23;6872;-74
2023/10/27 02:51:41;;;;;;;;;;;;;;;14.13;63.74;98088.59;6140915;23;6902;-75
2023/10/27 02:54:07;;;;;;;;;;;;;;;14.13;63.75;98080.03;6141177;23;6914;-73
2023/10/27 02:56:33;;;;;;;;;;;;;;;14.14;63.19;98076.56;6142213;23;6759;-73
2023/10/27 02:58:58;;;;;;;;;;;;;;;14.15;64.09;98083.44;6161230;23;7200;-73
2023/10/27 03:01:24;;;;;;;;;;;;;;;14.15;62.97;98075.72;6141246;23;6762;-73
2023/10/27 03:03:50;;;;;;;;;;;;;;;14.15;63.82;98076.59;6117151;23;7243;-73
2023/10/27 03:06:15;;;;;;;;;;;;;;;14.17;63.23;98079.13;6141857;23;7111;-73
2023/10/27 03:08:42;;;;;;;;;;;;;;;14.18;63.13;98082.59;6118117;23;6921;-73
2023/10/27 03:11:10;;;;;;;;;;;;;;;14.14;63.99;98074.00;6145257;23;6839;-73
2023/10/27 03:13:36;;;;;;;;;;;;;;;14.15;63.90;98070.56;6144753;23;7162;-74
2023/10/27 03:16:03;;;;;;;;;;;;;;;14.15;63.38;98076.59;6118841;23;7044;-74
2023/10/27 03:18:28;;;;;;;;;;;;;;;14.14;63.56;98069.69;6168186;23;7238;-73
2023/10/27 03:21:00;;;;;;;;;;;;;;;14.15;63.24;98068.84;6144396;23;6989;-74
2023/10/27 03:23:27;;;;;;;;;;;;;;;14.16;63.97;98067.13;6115111;23;6976;-73
2023/10/27 03:25:53;;;;;;;;;;;;;;;14.18;63.28;98065.38;6143468;23;7316;-73
2023/10/27 03:28:20;;;;;;;;;;;;;;;14.20;63.58;98068.84;6141150;23;6978;-73
2023/10/27 03:30:48;;;;;;;;;;;;;;;14.22;64.02;98064.53;6142883;23;6881;-73
2023/10/27 03:33:15;;;;;;;;;;;;;;;14.24;63.87;98067.06;6168120;23;6942;-73
2023/10/27 03:35:42;;;;;;;;;;;;;;;14.25;63.55;98061.94;6137515;23;6946;-73
2023/10/27 03:38:10;;;;;;;;;;;;;;;14.24;63.52;98065.38;6142301;23;6846;-74
2023/10/27 03:40:38;;;;;;;;;;;;;;;14.24;63.44;98062.78;6136775;23;6771;-73
2023/10/27 03:43:05;;;;;;;;;;;;;;;14.25;63.82;98056.78;6164560;23;6775;-73
2023/10/27 03:45:31;;;;;;;;;;;;;;;14.25;63.66;98059.34;6139254;23;6779;-74
2023/10/27 03:47:56;;;;;;;;;;;;;;;14.25;63.55;98049.03;6163108;23;6766;-74
2023/10/27 03:50:22;;;;;;;;;;;;;;;14.25;63.71;98056.78;6167676;23;6766;-73
2023/10/27 03:52:48;;;;;;;;;;;;;;;14.27;63.59;98055.03;6167316;23;6920;-74
2023/10/27 03:55:13;;;;;;;;;;;;;;;14.26;63.81;98048.19;6123417;23;7106;-73
2023/10/27 03:57:40;;;;;;;;;;;;;;;14.27;64.19;98055.03;6144826;23;6767;-72
2023/10/27 04:00:07;;;;;;;;;;;;;;;14.28;63.66;98045.59;6122063;23;6778;-72
2023/10/27 04:02:34;;;;;;;;;;;;;;;14.29;63.80;98048.19;6120540;23;7108;-72
2023/10/27 04:05:00;;;;;;;;;;;;;;;14.28;63.88;98043.88;6121408;23;6775;-72
2023/10/27 04:07:27;;;;;;;;;;;;;;;14.28;63.95;98036.13;6121934;23;6878;-72
2023/10/27 04:09:52;;;;;;;;;;;;;;;14.29;63.61;98042.16;6148363;23;6767;-72
2023/10/27 04:12:18;;;;;;;;;;;;;;;14.28;64.42;98043.88;6143027;23;6758;-73
2023/10/27 04:14:45;;;;;;;;;;;;;;;14.29;64.13;98037.00;6148552;23;6778;-73
2023/10/27 04:17:10;;;;;;;;;;;;;;;14.30;63.31;98039.59;6122677;23;6982;-73
2023/10/27 04:19:36;;;;;;;;;;;;;;;14.30;63.78;98036.16;6146866;23;6771;-73
2023/10/27 04:22:02;;;;;;;;;;;;;;;14.31;64.16;98035.28;6146075;23;7151;-73
2023/10/27 04:24:28;;;;;;;;;;;;;;;14.29;64.03;98035.31;6147091;23;6775;-73
2023/10/27 04:26:53;;;;;;;;;;;;;;;14.29;63.66;98030.16;6147811;23;6762;-73
2023/10/27 04:29:19;;;;;;;;;;;;;;;14.28;64.00;98025.84;6146417;23;6827;-73
2023/10/27 04:31:45;;;;;;;;;;;;;;;14.28;63.92;98025.84;6145478;23;6763;-73
2023/10/27 04:34:11;;;;;;;;;;;;;;;14.28;64.63;98028.41;6122306;23;6830;-73
2023/10/27 04:36:38;;;;;;;;;;;;;;;14.30;63.77;98025.84;6121345;23;7105;-73
2023/10/27 04:39:04;;;;;;;;;;;;;;;14.29;64.05;98026.72;6121632;23;6783;-73
2023/10/27 04:41:33;;;;;;;;;;;;;;;14.28;63.71;98023.25;6096880;23;6963;-73
2023/10/27 04:43:59;;;;;;;;;;;;;;;14.28;64.31;98027.56;6146845;23;6846;-73
2023/10/27 04:46:24;;;;;;;;;;;;;;;14.28;64.20;98025.00;6097872;23;7970;-73
2023/10/27 04:48:50;;;;;;;;;;;;;;;14.27;64.39;98025.88;6121541;23;6906;-73
2023/10/27 04:51:16;;;;;;;;;;;;;;;14.28;64.32;98030.16;6121655;23;6996;-73
2023/10/27 04:53:42;;;;;;;;;;;;;;;14.27;63.86;98018.13;6120944;23;7030;-73
2023/10/27 04:56:08;;;;;;;;;;;;;;;14.26;64.32;98017.25;6147748;23;6771;-73
2023/10/27 04:58:34;;;;;;;;;;;;;;;14.30;63.90;98024.13;6129978;23;6805;-73
2023/10/27 05:01:00;;;;;;;;;;;;;;;14.27;64.49;98024.13;6145318;23;7186;-73
2023/10/27 05:03:27;;;;;;;;;;;;;;;14.29;64.07;98021.56;6125056;23;7774;-74
2023/10/27 05:05:52;;;;;;;;;;;;;;;14.30;63.90;98012.97;6170925;23;6970;-74
2023/10/27 05:08:18;;;;;;;;;;;;;;;14.30;64.45;98007.81;6145796;23;6934;-74
2023/10/27 05:10:44;;;;;;;;;;;;;;;14.29;64.43;98009.53;6145651;23;6806;-74
2023/10/27 05:13:09;;;;;;;;;;;;;;;14.31;64.02;98009.50;6146083;23;8506;-74
2023/10/27 05:15:37;;;;;;;;;;;;;;;14.29;64.45;98006.97;6148504;23;6799;-74
2023/10/27 05:18:06;;;;;;;;;;;;;;;14.31;63.93;98014.66;6149288;23;6929;-74
2023/10/27 05:20:38;;;;;;;;;;;;;;;14.33;64.60;98010.34;6150635;23;7191;-74
2023/10/27 05:23:04;;;;;;;;;;;;;;;14.34;64.19;98008.66;6150697;23;6767;-74
2023/10/27 05:25:30;;;;;;;;;;;;;;;14.34;64.18;98004.38;6150799;23;7212;-74
2023/10/27 05:27:55;;;;;;;;;;;;;;;14.35;64.50;98007.78;6173471;23;6746;-74
2023/10/27 05:30:21;;;;;;;;;;;;;;;14.34;64.73;98008.66;6150050;23;6971;-74
2023/10/27 05:32:46;;;;;;;;;;;;;;;14.34;64.82;98009.50;6150562;23;6910;-74
2023/10/27 05:35:12;;;;;;;;;;;;;;;14.35;64.78;98005.19;6149953;23;6751;-74
2023/10/27 05:37:38;;;;;;;;;;;;;;;14.35;64.89;98006.06;6150451;23;6862;-74
2023/10/27 05:40:04;;;;;;;;;;;;;;;14.35;64.54;98011.22;6151442;23;6761;-74
2023/10/27 05:42:30;;;;;;;;;;;;;;;14.37;64.26;98006.03;6176320;23;7251;-74
2023/10/27 05:44:56;;;;;;;;;;;;;;;14.38;65.09;98013.78;6147585;23;6759;-73
2023/10/27 05:47:22;;;;;;;;;;;;;;;14.40;64.43;98013.78;6150698;23;6868;-74
2023/10/27 05:49:50;;;;;;;;;;;;;;;14.41;64.71;98018.91;6152109;23;6759;-74
2023/10/27 05:52:16;;;;;;;;;;;;;;;14.42;64.69;98015.47;6151953;23;6973;-73
2023/10/27 05:54:43;;;;;;;;;;;;;;;14.44;64.64;98015.47;6152305;23;6810;-74
2023/10/27 05:57:09;;;;;;;;;;;;;;;14.45;65.12;98009.44;6150543;23;7095;-74
2023/10/27 05:59:36;;;;;;;;;;;;;;;14.50;65.12;98012.84;6127965;23;6918;-73
2023/10/27 06:02:02;;;;;;;;;;;;;;;14.52;64.88;98023.13;6150538;23;6989;-74
2023/10/27 06:04:27;;;;;;;;;;;;;;;14.52;64.78;98021.44;6149886;23;6854;-73
2023/10/27 06:06:53;;;;;;;;;;;;;;;14.57;65.14;98022.22;6171982;23;6758;-74
2023/10/27 06:09:18;;;;;;;;;;;;;;;14.61;65.51;98023.06;6150367;23;6815;-74
2023/10/27 06:11:44;;;;;;;;;;;;;;;14.63;65.14;98020.50;6149035;23;6746;-74
2023/10/27 06:14:10;;;;;;;;;;;;;;;14.67;64.60;98028.19;6138794;23;6938;-76
2023/10/27 06:16:36;;;;;;;;;;;;;;;14.70;65.51;98029.91;6122613;23;6763;-76
2023/10/27 06:19:03;;;;;;;;;;;;;;;14.71;65.00;98027.31;6097520;23;7095;-76
2023/10/27 06:21:29;;;;;;;;;;;;;;;14.70;64.88;98023.00;6146167;23;6901;-76
2023/10/27 06:23:54;;;;;;;;;;;;;;;14.75;64.98;98038.47;6147874;23;6850;-77
2023/10/27 06:26:20;;;;;;;;;;;;;;;14.77;65.38;98039.31;6146477;23;6759;-75
2023/10/27 06:28:46;;;;;;;;;;;;;;;14.79;65.09;98045.34;6147153;23;6759;-77
2023/10/27 06:31:12;;;;;;;;;;;;;;;14.80;64.76;98044.47;6121806;23;6935;-75
2023/10/27 06:33:37;;;;;;;;;;;;;;;14.81;64.75;98045.31;6147085;23;6750;-76
2023/10/27 06:36:04;;;;;;;;;;;;;;;14.83;65.21;98043.63;6144683;23;6755;-75
2023/10/27 06:38:30;;;;;;;;;;;;;;;14.85;65.41;98047.88;6123027;23;6763;-75
2023/10/27 06:40:55;;;;;;;;;;;;;;;14.86;65.29;98057.31;6147451;23;7102;-76
2023/10/27 06:43:21;;;;;;;;;;;;;;;14.88;65.49;98051.31;6123028;23;6805;-75
2023/10/27 06:45:47;;;;;;;;;;;;;;;14.90;65.35;98055.56;6148859;23;6762;-76
2023/10/27 06:48:12;;;;;;;;;;;;;;;14.91;64.79;98064.19;6145927;23;8426;-75
2023/10/27 06:50:38;;;;;;;;;;;;;;;14.93;65.46;98065.00;6144350;23;6910;-75
2023/10/27 06:53:04;;;;;;;;;;;;;;;14.93;64.89;98065.00;6146437;23;6819;-74
2023/10/27 06:55:30;;;;;;;;;;;;;;;14.95;65.13;98063.28;6146386;23;7139;-75
2023/10/27 06:57:56;;;;;;;;;;;;;;;14.97;65.29;98066.72;6145992;23;6838;-74
2023/10/27 07:00:21;;;;;;;;;;;;;;;14.98;65.06;98069.28;6145754;23;7032;-75
2023/10/27 07:02:48;;;;;;;;;;;;;;;15.00;65.46;98066.69;6145060;23;7101;-75
2023/10/27 07:05:16;;;;;;;;;;;;;;;15.02;65.23;98079.56;6142612;23;6946;-75
2023/10/27 07:07:43;;;;;;;;;;;;;;;15.05;64.87;98079.56;6121655;23;6948;-74
2023/10/27 07:10:10;;;;;;;;;;;;;;;15.06;65.18;98078.69;6122073;23;7040;-74
2023/10/27 07:12:35;;;;;;;;;;;;;;;15.09;65.23;98083.81;6121796;23;6839;-75
2023/10/27 07:15:01;;;;;;;;;;;;;;;15.12;65.07;98087.22;6146428;23;6954;-75
2023/10/27 07:17:28;;;;;;;;;;;;;;;15.10;64.92;98082.94;6147422;23;6966;-75
2023/10/27 07:19:53;;;;;;;;;;;;;;;15.12;64.94;98094.97;6147076;23;7077;-76
2023/10/27 07:22:19;;;;;;;;;;;;;;;15.14;65.20;98093.22;6147440;23;6956;-75
2023/10/27 07:24:46;;;;;;;;;;;;;;;15.18;65.37;98106.97;6151502;23;6945;-73
2023/10/27 07:27:12;;;;;;;;;;;;;;;15.20;65.14;98105.22;6124773;23;7248;-72
2023/10/27 07:29:38;;;;;;;;;;;;;;;15.24;64.86;98103.47;6123784;23;6775;-73
2023/10/27 07:32:04;;;;;;;;;;;;;;;15.23;65.10;98112.97;6095087;23;7184;-73
2023/10/27 07:34:29;;;;;;;;;;;;;;;15.21;64.56;98106.97;6124815;23;6754;-74
2023/10/27 07:36:55;;;;;;;;;;;;;;;15.21;65.13;98108.66;6125760;23;6850;-73
2023/10/27 07:39:22;;;;;;;;;;;;;;;15.18;65.26;98101.81;6122125;23;6909;-71
2023/10/27 07:41:50;;;;;;;;;;;;;;;15.20;65.07;98104.38;6101117;23;7054;-73
2023/10/27 07:44:16;;;;;;;;;;;;;;;15.20;65.14;98109.53;6150118;23;6786;-73
2023/10/27 07:46:41;;;;;;;;;;;;;;;15.20;64.90;98105.22;6100439;23;6963;-74
2023/10/27 07:49:07;;;;;;;;;;;;;;;15.21;64.72;98106.97;6123003;23;6759;-74
2023/10/27 07:51:33;;;;;;;;;;;;;;;15.22;65.35;98110.38;6124620;23;6758;-72
2023/10/27 07:53:59;;;;;;;;;;;;;;;15.26;65.64;98112.94;6125164;23;6829;-73
2023/10/27 07:56:24;;;;;;;;;;;;;;;15.32;65.21;98117.19;6125195;23;6762;-72
2023/10/27 07:58:50;;;;;;;;;;;;;;;15.37;65.38;98117.13;6124567;23;6763;-73
2023/10/27 08:01:15;;;;;;;;;;;;;;;15.44;65.10;98112.78;6124704;23;6767;-73
2023/10/27 08:03:41;;;;;;;;;;;;;;;15.51;65.30;98114.44;6099992;23;6967;-72
2023/10/27 08:06:14;;;;;;;;;;;;;;;15.58;64.96;98120.41;5031691;28;6790;-71
2023/10/27 08:08:40;;;;;;;;;;;;;;;15.59;65.15;98122.13;5044719;28;7016;-72
2023/10/27 08:11:06;;;;;;;;;;;;;;;15.61;64.76;98131.56;5012389;28;8298;-72
2023/10/27 08:13:33;;;;;;;;;;;;;;;15.61;64.25;98135.88;5035950;28;6966;-73
2023/10/27 08:15:59;;;;;;;;;;;;;;;15.60;64.86;98127.28;5043534;28;6780;-73
2023/10/27 08:18:25;;;;;;;;;;;;;;;15.60;65.01;98119.53;5043456;28;6776;-71
2023/10/27 08:20:55;;;;;;;;;;;;;;;15.60;64.68;98129.84;5036605;28;7682;-72
2023/10/27 08:23:20;;;;;;;;;;;;;;;15.58;64.38;98135.91;5011574;28;7030;-72
2023/10/27 08:25:52;;;;;;;;;;;;;;;15.53;64.36;98138.50;4988552;28;8634;-72
2023/10/27 08:28:19;;;;;;;;;;;;;;;15.49;64.84;98140.25;5027074;28;7050;-71
2023/10/27 08:30:46;;;;;;;;;;;;;;;15.45;64.72;98140.31;5016589;28;6808;-73
2023/10/27 08:33:12;;;;;;;;;;;;;;;15.43;64.42;98153.25;4945783;28;7669;-72
2023/10/27 08:35:37;;;;;;;;;;;;;;;15.40;64.65;98155.81;4951527;28;7841;-72
2023/10/27 08:38:03;;;;;;;;;;;;;;;15.43;65.31;98163.56;4954970;28;6788;-72
2023/10/27 08:40:29;;;;;;;;;;;;;;;15.41;64.80;98166.16;4971935;28;6760;-72
2023/10/27 08:42:56;;;;;;;;;;;;;;;15.41;65.26;98158.41;4951744;28;6788;-72
2023/10/27 08:45:22;;;;;;;;;;;;;;;15.40;65.81;98164.44;4959815;28;7158;-72
2023/10/27 08:47:49;;;;;;;;;;;;;;;15.43;65.03;98160.13;4930979;28;7670;-72
2023/10/27 08:50:16;;;;;;;;;;;;;;;15.45;65.23;98155.78;4972039;28;6788;-72
2023/10/27 08:52:42;;;;;;;;;;;;;;;15.46;65.45;98158.38;4957520;28;6954;-71
2023/10/27 08:55:10;;;;;;;;;;;;;;;15.51;65.22;98163.50;4991911;23;7218;-72
2023/10/27 08:57:37;;;;;;;;;;;;;;;15.53;65.58;98159.16;4984870;28;7030;-72
2023/10/27 09:00:07;;;;;;;;;;;;;;;15.56;65.70;98159.16;4964030;28;7615;-72
2023/10/27 09:02:38;;;;;;;;;;;;;;;15.63;65.54;98160.81;4980116;28;7489;-72
2023/10/27 09:05:09;;;;;;;;;;;;;;;15.71;65.44;98157.31;4977438;28;6800;-72
2023/10/27 09:07:35;;;;;;;;;;;;;;;15.78;65.66;98159.81;4984206;28;6979;-72
2023/10/27 09:10:06;;;;;;;;;;;;;;;15.87;65.60;98158.88;4965436;28;6996;-72
2023/10/27 09:12:36;;;;;;;;;;;;;;;15.98;65.74;98155.38;4971637;28;7732;-72
2023/10/27 09:15:08;;;;;;;;;;;;;;;16.08;65.55;98157.00;4967596;28;6999;-72
2023/10/27 09:17:56;;;;;;;;;;;;;;;16.19;65.62;98165.47;4960718;28;6808;-72
2023/10/27 09:20:24;;;;;;;;;;;;;;;16.30;65.41;98161.91;4963444;28;7427;-72
2023/10/27 09:23:06;;;;;;;;;;;;;;;16.43;65.48;98165.22;4971451;28;6808;-72
2023/10/27 09:25:34;;;;;;;;;;;;;;;16.59;65.54;98163.31;4965688;28;7275;-72
2023/10/27 09:28:05;;;;;;;;;;;;;;;16.74;66.02;98167.44;4949773;28;7832;-72
2023/10/27 09:30:38;;;;;;;;;;;;;;;16.87;65.03;98176.75;4969812;28;7229;-72
2023/10/27 09:33:23;;;;;;;;;;;;;;;16.90;64.66;98178.44;4964391;28;6985;-72
2023/10/27 09:35:51;;;;;;;;;;;;;;;16.89;64.18;98177.59;4972365;28;7156;-73
2023/10/27 09:38:17;;;;;;;;;;;;;;;16.87;64.37;98184.53;4962151;28;6812;-72
2023/10/27 09:40:48;;;;;;;;;;;;;;;16.90;64.51;98189.66;4953376;28;7133;-72
2023/10/27 09:43:25;;;;;;;;;;;;;;;16.99;65.01;98188.66;4968436;28;7506;-72
2023/10/27 09:45:58;;;;;;;;;;;;;;;17.14;65.56;98186.78;4955961;28;6804;-72
2023/10/27 09:48:32;;;;;;;;;;;;;;;17.32;65.18;98183.91;4961291;28;7273;-72
2023/10/27 09:51:11;;;;;;;;;;;;;;;17.47;64.84;98187.13;4968997;28;6800;-73
2023/10/27 09:53:39;;;;;;;;;;;;;;;17.55;64.35;98197.41;4948555;28;7148;-72
2023/10/27 09:56:05;;;;;;;;;;;;;;;17.59;64.00;98202.50;4946457;28;8952;-72
2023/10/27 09:58:34;;;;;;;;;;;;;;;17.59;63.51;98199.91;4960766;28;6788;-73
2023/10/27 10:01:02;;;;;;;;;;;;;;;17.56;63.50;98199.09;4967457;28;6820;-72
2023/10/27 10:03:28;;;;;;;;;;;;;;;17.52;63.50;98203.47;4962244;28;7237;-73
2023/10/27 10:06:23;;;;;;;;;;;;;;;17.54;63.56;98200.88;4952014;28;6931;-72
2023/10/27 10:09:10;;;;;;;;;;;;;;;17.63;64.08;98193.78;4962480;28;7086;-73
2023/10/27 10:11:47;;;;;;;;;;;;;;;17.74;64.06;98197.94;4955612;28;7196;-72
2023/10/27 10:14:39;;;;;;;;;;;;;;;17.80;63.64;98203.03;4971716;28;6918;-72
2023/10/27 10:17:05;;;;;;;;;;;;;;;17.86;63.60;98207.25;4966947;28;7213;-72
2023/10/27 10:19:57;;;;;;;;;;;;;;;17.93;63.18;98214.06;4957712;28;7239;-73
2023/10/27 10:22:41;;;;;;;;;;;;;;;17.97;63.08;98214.84;4957355;28;6800;-72
2023/10/27 10:25:19;;;;;;;;;;;;;;;18.00;63.10;98209.59;4956551;28;6788;-73
2023/10/27 10:28:09;;;;;;;;;;;;;;;18.01;63.67;98212.19;4951769;28;7007;-73
2023/10/27 10:30:37;;;;;;;;;;;;;;;18.03;63.17;98215.63;4956224;28;6784;-73
2023/10/27 10:33:19;;;;;;;;;;;;;;;18.09;63.03;98209.47;4964272;28;6936;-73
2023/10/27 10:35:46;;;;;;;;;;;;;;;18.19;63.36;98210.16;4962597;28;6836;-73
2023/10/27 10:38:21;;;;;;;;;;;;;;;18.32;63.28;98205.59;4964636;28;9497;-72
2023/10/27 10:40:58;;;;;;;;;;;;;;;18.46;63.02;98205.34;4950568;28;8424;-72
2023/10/27 10:43:30;;;;;;;;;;;;;;;18.63;63.60;98204.16;4961218;28;6978;-72
2023/10/27 10:46:13;;;;;;;;;;;;;;;18.79;63.12;98204.69;4954133;28;6804;-72
2023/10/27 10:48:46;;;;;;;;;;;;;;;18.95;63.07;98200.03;4955177;28;6975;-72
2023/10/27 10:51:15;;;;;;;;;;;;;;;19.14;62.55;98205.72;4968763;28;7173;-75
2023/10/27 10:53:43;;;;;;;;;;;;;;;19.34;62.38;98209.63;4958500;28;6796;-72
2023/10/27 10:56:09;;;;;;;;;;;;;;;19.47;61.71;98198.03;4955472;28;7153;-75
2023/10/27 10:58:40;;;;;;;;;;;;;;;19.56;61.80;98192.63;4946330;28;7806;-74
2023/10/27 11:01:19;;;;;;;;;;;;;;;19.61;61.21;98194.28;4951923;28;6876;-76
2023/10/27 11:03:51;;;;;;;;;;;;;;;19.62;60.72;98188.19;4957899;28;7012;-75
2023/10/27 11:06:23;;;;;;;;;;;;;;;19.63;60.78;98193.31;4959498;28;6880;-76
2023/10/27 11:08:49;;;;;;;;;;;;;;;19.64;60.67;98194.19;4950972;28;6804;-76
2023/10/27 11:11:18;;;;;;;;;;;;;;;19.63;60.23;98195.94;4961465;28;7065;-75
2023/10/27 11:13:47;;;;;;;;;;;;;;;19.57;60.02;98191.72;4938124;28;7938;-74
2023/10/27 11:16:16;;;;;;;;;;;;;;;19.50;60.48;98192.75;4969795;28;7222;-75
2023/10/27 11:18:46;;;;;;;;;;;;;;;19.42;59.94;98192.13;4957350;28;6788;-74
2023/10/27 11:21:16;;;;;;;;;;;;;;;19.31;59.74;98191.50;4970815;28;7177;-74
2023/10/27 11:23:43;;;;;;;;;;;;;;;19.14;59.48;98193.59;4962121;28;6979;-74
2023/10/27 11:26:08;;;;;;;;;;;;;;;18.91;58.80;98201.84;4939514;28;8581;-76
2023/10/27 11:28:42;;;;;;;;;;;;;;;18.64;59.51;98206.75;4949997;28;6787;-75
2023/10/27 11:31:13;;;;;;;;;;;;;;;18.50;60.18;98214.78;4941198;28;6808;-75
2023/10/27 11:34:05;;;;;;;;;;;;;;;18.43;61.20;98214.03;4936136;28;6925;-75
2023/10/27 11:36:34;;;;;;;;;;;;;;;18.45;61.27;98209.69;4940701;28;6792;-74
2023/10/27 11:39:17;;;;;;;;;;;;;;;18.52;61.35;98202.63;4930098;28;7015;-76
2023/10/27 11:41:53;;;;;;;;;;;;;;;18.53;61.31;98211.25;4941731;28;7162;-76
2023/10/27 11:44:19;;;;;;;;;;;;;;;18.54;61.15;98212.97;4957113;28;8279;-75
2023/10/27 11:46:46;;;;;;;;;;;;;;;18.54;60.52;98216.44;4948940;28;7061;-75
2023/10/27 11:49:13;;;;;;;;;;;;;;;18.51;60.52;98215.63;4961261;28;7039;-77
2023/10/27 11:51:38;;;;;;;;;;;;;;;18.46;60.50;98214.00;4960554;28;6995;-75
2023/10/27 11:54:04;;;;;;;;;;;;;;;18.44;60.41;98223.50;4964506;28;7374;-75
2023/10/27 11:56:30;;;;;;;;;;;;;;;18.43;60.73;98219.22;4928508;28;7202;-76
2023/10/27 11:58:55;;;;;;;;;;;;;;;18.43;60.70;98218.38;4951299;28;7056;-76
2023/10/27 12:01:21;;;;;;;;;;;;;;;18.43;60.78;98223.56;4934008;28;6811;-76
2023/10/27 12:03:47;;;;;;;;;;;;;;;18.38;60.17;98218.47;4965511;28;7126;-76
2023/10/27 12:06:12;;;;;;;;;;;;;;;18.31;60.33;98222.03;4977452;28;6788;-74
2023/10/27 12:08:38;;;;;;;;;;;;;;;18.22;59.99;98230.00;4946870;28;6808;-74
2023/10/27 12:11:04;;;;;;;;;;;;;;;18.06;60.05;98237.19;4977777;28;6902;-74
2023/10/27 12:13:30;;;;;;;;;;;;;;;17.88;59.83;98223.63;4961941;28;6965;-74
2023/10/27 12:15:55;;;;;;;;;;;;;;;17.65;59.65;98229.16;4948309;28;6776;-72
2023/10/27 12:18:21;;;;;;;;;;;;;;;17.43;60.15;98220.03;4943285;28;6963;-74
2023/10/27 12:20:52;;;;;;;;;;;;;;;17.24;60.38;98234.06;4935504;29;6858;-73
2023/10/27 12:23:18;;;;;;;;;;;;;;;17.11;61.39;98238.59;4981024;28;6844;-73
2023/10/27 12:25:44;;;;;;;;;;;;;;;17.01;61.35;98237.84;4979106;28;6851;-72
2023/10/27 12:28:10;;;;;;;;;;;;;;;16.98;61.82;98233.53;4965306;28;7241;-73
2023/10/27 12:30:36;;;;;;;;;;;;;;;16.96;61.75;98230.09;4967652;28;7177;-73
2023/10/27 12:33:08;;;;;;;;;;;;;;;16.95;61.85;98238.75;4976992;28;6772;-73
2023/10/27 12:35:34;;;;;;;;;;;;;;;16.96;61.66;98248.22;4952625;28;7000;-75
2023/10/27 12:38:00;;;;;;;;;;;;;;;16.94;61.77;98245.63;4963928;28;6998;-74
2023/10/27 12:40:26;;;;;;;;;;;;;;;16.94;61.98;98237.88;4939483;28;7056;-73
2023/10/27 12:42:52;;;;;;;;;;;;;;;16.95;61.61;98249.09;4976038;28;7610;-73
2023/10/27 12:45:18;;;;;;;;;;;;;;;16.91;61.79;98248.28;4979968;28;6867;-72
2023/10/27 12:47:50;;;;;;;;;;;;;;;16.85;61.67;98248.38;4954196;28;7226;-74
2023/10/27 12:50:16;;;;;;;;;;;;;;;16.76;62.02;98251.91;4960858;28;7015;-74
2023/10/27 12:52:42;;;;;;;;;;;;;;;16.68;61.91;98243.38;4942483;28;6784;-74
2023/10/27 12:55:09;;;;;;;;;;;;;;;16.63;62.20;98264.09;4953098;28;7353;-75
2023/10/27 12:57:36;;;;;;;;;;;;;;;16.57;62.28;98253.84;4949118;28;6923;-75
2023/10/27 13:00:08;;;;;;;;;;;;;;;16.50;62.01;98258.22;4965824;28;7248;-75